sensor_id;sensor_type;location;lat;lon;timestamp;pressure;altitude;pressure_sealevel;temperature;humidity
7962;BME280;4026;43.652;24.906;2022-10-22T00:02:02;99868.91;;;9.03;79.52
7962;BME280;4026;43.652;24.906;2022-10-22T00:04:31;99864.63;;;9.04;79.92
7962;BME280;4026;43.652;24.906;2022-10-22T00:06:58;99860.44;;;9.03;79.56
7962;BME280;4026;43.652;24.906;2022-10-22T00:09:25;99858.84;;;9.00;79.89
7962;BME280;4026;43.652;24.906;2022-10-22T00:11:52;99857.72;;;9.06;79.73
7962;BME280;4026;43.652;24.906;2022-10-22T00:14:20;99856.06;;;9.05;79.33
7962;BME280;4026;43.652;24.906;2022-10-22T00:16:47;99852.94;;;9.00;79.91
7962;BME280;4026;43.652;24.906;2022-10-22T00:19:14;99846.19;;;8.99;79.82
7962;BME280;4026;43.652;24.906;2022-10-22T00:21:41;99849.63;;;8.98;79.77
7962;BME280;4026;43.652;24.906;2022-10-22T00:24:08;99850.78;;;8.92;79.97
7962;BME280;4026;43.652;24.906;2022-10-22T00:26:34;99848.97;;;8.94;79.98
7962;BME280;4026;43.652;24.906;2022-10-22T00:29:01;99847.09;;;8.98;79.54
7962;BME280;4026;43.652;24.906;2022-10-22T00:31:30;99843.66;;;8.99;79.49
7962;BME280;4026;43.652;24.906;2022-10-22T00:33:56;99841.25;;;8.96;80.00
7962;BME280;4026;43.652;24.906;2022-10-22T00:36:23;99839.94;;;8.89;80.31
7962;BME280;4026;43.652;24.906;2022-10-22T00:38:50;99845.34;;;8.82;80.53
7962;BME280;4026;43.652;24.906;2022-10-22T00:41:17;99846.28;;;8.81;80.57
7962;BME280;4026;43.652;24.906;2022-10-22T00:43:55;99850.63;;;8.79;80.64
7962;BME280;4026;43.652;24.906;2022-10-22T00:46:23;99856.47;;;8.81;80.72
7962;BME280;4026;43.652;24.906;2022-10-22T00:48:52;99859.03;;;8.81;80.55
7962;BME280;4026;43.652;24.906;2022-10-22T00:51:20;99850.63;;;8.79;80.52
7962;BME280;4026;43.652;24.906;2022-10-22T00:53:52;99852.25;;;8.80;80.28
7962;BME280;4026;43.652;24.906;2022-10-22T00:56:21;99845.53;;;8.79;80.46
7962;BME280;4026;43.652;24.906;2022-10-22T00:58:50;99844.94;;;8.74;80.38
7962;BME280;4026;43.652;24.906;2022-10-22T01:01:21;99846.72;;;8.72;80.16
7962;BME280;4026;43.652;24.906;2022-10-22T01:03:50;99851.84;;;8.72;80.35
7962;BME280;4026;43.652;24.906;2022-10-22T01:06:22;99841.72;;;8.71;80.45
7962;BME280;4026;43.652;24.906;2022-10-22T01:08:55;99832.50;;;8.68;80.61
7962;BME280;4026;43.652;24.906;2022-10-22T01:11:26;99825.09;;;8.64;81.10
7962;BME280;4026;43.652;24.906;2022-10-22T01:14:03;99824.44;;;8.60;81.33
7962;BME280;4026;43.652;24.906;2022-10-22T01:16:35;99822.97;;;8.56;81.91
7962;BME280;4026;43.652;24.906;2022-10-22T01:19:15;99817.50;;;8.46;82.68
7962;BME280;4026;43.652;24.906;2022-10-22T01:21:51;99813.75;;;8.36;83.00
7962;BME280;4026;43.652;24.906;2022-10-22T01:24:35;99814.16;;;8.28;83.56
7962;BME280;4026;43.652;24.906;2022-10-22T01:27:14;99811.75;;;8.25;84.23
7962;BME280;4026;43.652;24.906;2022-10-22T01:29:49;99808.72;;;8.19;84.82
7962;BME280;4026;43.652;24.906;2022-10-22T01:32:20;99804.44;;;8.19;84.66
7962;BME280;4026;43.652;24.906;2022-10-22T01:34:49;99807.88;;;8.18;84.45
7962;BME280;4026;43.652;24.906;2022-10-22T01:37:21;99800.97;;;8.20;84.11
7962;BME280;4026;43.652;24.906;2022-10-22T01:39:49;99797.38;;;8.24;84.14
7962;BME280;4026;43.652;24.906;2022-10-22T01:42:17;99800.69;;;8.26;83.81
7962;BME280;4026;43.652;24.906;2022-10-22T01:44:44;99798.03;;;8.28;83.77
7962;BME280;4026;43.652;24.906;2022-10-22T01:47:38;99791.97;;;8.30;83.64
7962;BME280;4026;43.652;24.906;2022-10-22T01:50:22;99788.50;;;8.31;83.42
7962;BME280;4026;43.652;24.906;2022-10-22T01:53:09;99786.72;;;8.33;83.32
7962;BME280;4026;43.652;24.906;2022-10-22T01:55:48;99780.00;;;8.32;83.19
7962;BME280;4026;43.652;24.906;2022-10-22T01:58:23;99771.44;;;8.33;83.29
7962;BME280;4026;43.652;24.906;2022-10-22T02:00:56;99774.59;;;8.38;83.21
7962;BME280;4026;43.652;24.906;2022-10-22T02:03:29;99779.38;;;8.45;82.86
7962;BME280;4026;43.652;24.906;2022-10-22T02:06:02;99778.41;;;8.47;82.96
7962;BME280;4026;43.652;24.906;2022-10-22T02:08:34;99782.34;;;8.53;82.81
7962;BME280;4026;43.652;24.906;2022-10-22T02:11:03;99787.44;;;8.53;82.67
7962;BME280;4026;43.652;24.906;2022-10-22T02:13:34;99783.66;;;8.60;82.27
7962;BME280;4026;43.652;24.906;2022-10-22T02:16:03;99779.91;;;8.67;82.05
7962;BME280;4026;43.652;24.906;2022-10-22T02:18:36;99788.00;;;8.58;82.14
7962;BME280;4026;43.652;24.906;2022-10-22T02:21:05;99785.47;;;8.58;82.32
7962;BME280;4026;43.652;24.906;2022-10-22T02:23:32;99781.28;;;8.57;82.08
7962;BME280;4026;43.652;24.906;2022-10-22T02:26:02;99780.53;;;8.55;82.33
7962;BME280;4026;43.652;24.906;2022-10-22T02:28:36;99784.22;;;8.49;82.59
7962;BME280;4026;43.652;24.906;2022-10-22T02:31:08;99786.19;;;8.44;82.79
7962;BME280;4026;43.652;24.906;2022-10-22T02:33:42;99786.09;;;8.46;82.93
7962;BME280;4026;43.652;24.906;2022-10-22T02:36:11;99778.47;;;8.46;82.78
7962;BME280;4026;43.652;24.906;2022-10-22T02:38:39;99770.66;;;8.49;82.94
7962;BME280;4026;43.652;24.906;2022-10-22T02:41:07;99765.72;;;8.46;82.86
7962;BME280;4026;43.652;24.906;2022-10-22T02:43:39;99765.72;;;8.46;83.02
7962;BME280;4026;43.652;24.906;2022-10-22T02:46:07;99764.53;;;8.35;83.18
7962;BME280;4026;43.652;24.906;2022-10-22T02:48:34;99767.31;;;8.31;83.37
7962;BME280;4026;43.652;24.906;2022-10-22T02:51:02;99758.09;;;8.28;83.38
7962;BME280;4026;43.652;24.906;2022-10-22T02:53:29;99759.19;;;8.24;83.36
7962;BME280;4026;43.652;24.906;2022-10-22T02:55:57;99757.09;;;8.15;83.41
7962;BME280;4026;43.652;24.906;2022-10-22T02:58:24;99751.56;;;8.07;83.75
7962;BME280;4026;43.652;24.906;2022-10-22T03:00:51;99757.16;;;7.98;84.19
7962;BME280;4026;43.652;24.906;2022-10-22T03:03:18;99751.28;;;7.96;84.31
7962;BME280;4026;43.652;24.906;2022-10-22T03:05:45;99749.66;;;7.94;84.51
7962;BME280;4026;43.652;24.906;2022-10-22T03:08:13;99747.19;;;7.93;84.92
7962;BME280;4026;43.652;24.906;2022-10-22T03:10:40;99746.44;;;7.91;85.56
7962;BME280;4026;43.652;24.906;2022-10-22T03:13:06;99742.31;;;8.06;85.30
7962;BME280;4026;43.652;24.906;2022-10-22T03:15:33;99742.31;;;8.06;85.10
7962;BME280;4026;43.652;24.906;2022-10-22T03:18:00;99736.97;;;8.10;85.15
7962;BME280;4026;43.652;24.906;2022-10-22T03:20:27;99737.22;;;8.06;85.24
7962;BME280;4026;43.652;24.906;2022-10-22T03:22:55;99734.66;;;8.06;85.30
7962;BME280;4026;43.652;24.906;2022-10-22T03:25:24;99740.63;;;8.05;85.73
7962;BME280;4026;43.652;24.906;2022-10-22T03:27:53;99749.19;;;8.04;85.65
7962;BME280;4026;43.652;24.906;2022-10-22T03:30:21;99744.16;;;8.02;85.68
7962;BME280;4026;43.652;24.906;2022-10-22T03:32:48;99746.66;;;8.04;85.70
7962;BME280;4026;43.652;24.906;2022-10-22T03:35:15;99748.28;;;8.05;85.68
7962;BME280;4026;43.652;24.906;2022-10-22T03:37:42;99754.13;;;8.07;85.82
7962;BME280;4026;43.652;24.906;2022-10-22T03:40:09;99743.13;;;8.06;85.81
7962;BME280;4026;43.652;24.906;2022-10-22T03:42:38;99749.03;;;8.07;85.80
7962;BME280;4026;43.652;24.906;2022-10-22T03:45:06;99743.13;;;8.06;85.80
7962;BME280;4026;43.652;24.906;2022-10-22T03:47:33;99738.09;;;8.05;86.14
7962;BME280;4026;43.652;24.906;2022-10-22T03:50:01;99738.19;;;8.03;85.77
7962;BME280;4026;43.652;24.906;2022-10-22T03:52:33;99739.81;;;8.04;86.03
7962;BME280;4026;43.652;24.906;2022-10-22T03:55:00;99749.19;;;8.04;86.08
7962;BME280;4026;43.652;24.906;2022-10-22T03:57:27;99744.09;;;8.04;85.96
7962;BME280;4026;43.652;24.906;2022-10-22T03:59:55;99749.34;;;8.01;86.33
7962;BME280;4026;43.652;24.906;2022-10-22T04:02:22;99755.56;;;7.95;86.67
7962;BME280;4026;43.652;24.906;2022-10-22T04:04:49;99747.69;;;8.00;86.82
7962;BME280;4026;43.652;24.906;2022-10-22T04:07:16;99757.59;;;8.06;86.62
7962;BME280;4026;43.652;24.906;2022-10-22T04:09:42;99746.09;;;8.14;86.34
7962;BME280;4026;43.652;24.906;2022-10-22T04:12:09;99748.41;;;8.19;86.02
7962;BME280;4026;43.652;24.906;2022-10-22T04:14:36;99743.22;;;8.21;85.88
7962;BME280;4026;43.652;24.906;2022-10-22T04:17:04;99744.81;;;8.23;85.61
7962;BME280;4026;43.652;24.906;2022-10-22T04:19:31;99739.53;;;8.26;85.45
7962;BME280;4026;43.652;24.906;2022-10-22T04:21:58;99739.38;;;8.29;85.14
7962;BME280;4026;43.652;24.906;2022-10-22T04:24:25;99747.59;;;8.34;85.15
7962;BME280;4026;43.652;24.906;2022-10-22T04:26:54;99751.88;;;8.34;85.03
7962;BME280;4026;43.652;24.906;2022-10-22T04:29:21;99754.94;;;8.41;84.95
7962;BME280;4026;43.652;24.906;2022-10-22T04:31:48;99758.00;;;8.47;84.98
7962;BME280;4026;43.652;24.906;2022-10-22T04:34:16;99753.91;;;8.45;84.80
7962;BME280;4026;43.652;24.906;2022-10-22T04:36:43;99752.91;;;8.47;84.67
7962;BME280;4026;43.652;24.906;2022-10-22T04:39:09;99758.59;;;8.52;84.29
7962;BME280;4026;43.652;24.906;2022-10-22T04:41:37;99764.94;;;8.61;84.00
7962;BME280;4026;43.652;24.906;2022-10-22T04:44:05;99753.72;;;8.64;84.16
7962;BME280;4026;43.652;24.906;2022-10-22T04:46:33;99757.59;;;8.71;83.73
7962;BME280;4026;43.652;24.906;2022-10-22T04:49:00;99762.44;;;8.75;83.35
7962;BME280;4026;43.652;24.906;2022-10-22T04:51:31;99765.16;;;8.72;83.11
7962;BME280;4026;43.652;24.906;2022-10-22T04:53:58;99764.09;;;8.76;83.23
7962;BME280;4026;43.652;24.906;2022-10-22T04:56:26;99761.38;;;8.79;83.25
7962;BME280;4026;43.652;24.906;2022-10-22T04:58:55;99774.31;;;8.76;83.18
7962;BME280;4026;43.652;24.906;2022-10-22T05:01:24;99776.19;;;8.73;83.23
7962;BME280;4026;43.652;24.906;2022-10-22T05:03:53;99776.25;;;8.71;83.28
7962;BME280;4026;43.652;24.906;2022-10-22T05:06:21;99770.59;;;8.66;83.12
7962;BME280;4026;43.652;24.906;2022-10-22T05:08:53;99764.75;;;8.64;83.30
7962;BME280;4026;43.652;24.906;2022-10-22T05:11:22;99752.25;;;8.59;83.03
7962;BME280;4026;43.652;24.906;2022-10-22T05:13:49;99755.88;;;8.55;83.27
7962;BME280;4026;43.652;24.906;2022-10-22T05:16:16;99753.41;;;8.54;83.65
7962;BME280;4026;43.652;24.906;2022-10-22T05:18:44;99752.31;;;8.58;83.45
7962;BME280;4026;43.652;24.906;2022-10-22T05:21:12;99755.28;;;8.66;82.91
7962;BME280;4026;43.652;24.906;2022-10-22T05:23:40;99755.38;;;8.65;82.73
7962;BME280;4026;43.652;24.906;2022-10-22T05:26:09;99749.47;;;8.64;82.77
7962;BME280;4026;43.652;24.906;2022-10-22T05:28:37;99759.84;;;8.61;82.93
7962;BME280;4026;43.652;24.906;2022-10-22T05:31:05;99752.91;;;8.63;83.01
7962;BME280;4026;43.652;24.906;2022-10-22T05:33:33;99750.63;;;8.58;83.03
7962;BME280;4026;43.652;24.906;2022-10-22T05:36:02;99753.97;;;8.59;83.24
7962;BME280;4026;43.652;24.906;2022-10-22T05:38:30;99744.53;;;8.61;82.85
7962;BME280;4026;43.652;24.906;2022-10-22T05:40:58;99753.41;;;8.54;83.05
7962;BME280;4026;43.652;24.906;2022-10-22T05:43:27;99758.16;;;8.60;82.88
7962;BME280;4026;43.652;24.906;2022-10-22T05:45:54;99755.44;;;8.63;82.78
7962;BME280;4026;43.652;24.906;2022-10-22T05:48:21;99751.69;;;8.70;82.69
7962;BME280;4026;43.652;24.906;2022-10-22T05:50:48;99756.53;;;8.75;82.48
7962;BME280;4026;43.652;24.906;2022-10-22T05:53:16;99756.28;;;8.79;82.54
7962;BME280;4026;43.652;24.906;2022-10-22T05:55:43;99757.03;;;8.81;82.33
7962;BME280;4026;43.652;24.906;2022-10-22T05:58:11;99753.22;;;8.89;82.22
7962;BME280;4026;43.652;24.906;2022-10-22T06:00:39;99756.25;;;8.95;82.23
7962;BME280;4026;43.652;24.906;2022-10-22T06:03:06;99754.38;;;8.99;82.05
7962;BME280;4026;43.652;24.906;2022-10-22T06:05:34;99751.50;;;9.05;82.33
7962;BME280;4026;43.652;24.906;2022-10-22T06:08:01;99748.59;;;9.11;82.14
7962;BME280;4026;43.652;24.906;2022-10-22T06:10:28;99740.66;;;9.16;82.00
7962;BME280;4026;43.652;24.906;2022-10-22T06:12:55;99756.47;;;9.22;81.77
7962;BME280;4026;43.652;24.906;2022-10-22T06:15:22;99756.13;;;9.28;81.44
7962;BME280;4026;43.652;24.906;2022-10-22T06:17:50;99767.81;;;9.33;81.39
7962;BME280;4026;43.652;24.906;2022-10-22T06:20:17;99766.47;;;9.41;81.59
7962;BME280;4026;43.652;24.906;2022-10-22T06:22:44;99772.22;;;9.45;81.31
7962;BME280;4026;43.652;24.906;2022-10-22T06:25:12;99783.56;;;9.55;80.78
7962;BME280;4026;43.652;24.906;2022-10-22T06:27:39;99789.78;;;9.65;80.34
7962;BME280;4026;43.652;24.906;2022-10-22T06:30:07;99789.63;;;9.83;80.88
7962;BME280;4026;43.652;24.906;2022-10-22T06:32:34;99781.53;;;10.05;79.60
7962;BME280;4026;43.652;24.906;2022-10-22T06:35:03;99770.59;;;10.46;77.49
7962;BME280;4026;43.652;24.906;2022-10-22T06:37:29;99780.22;;;10.42;76.41
7962;BME280;4026;43.652;24.906;2022-10-22T06:39:56;99779.84;;;10.48;76.04
7962;BME280;4026;43.652;24.906;2022-10-22T06:42:23;99777.88;;;10.66;75.92
7962;BME280;4026;43.652;24.906;2022-10-22T06:44:50;99778.25;;;11.01;75.92
7962;BME280;4026;43.652;24.906;2022-10-22T06:47:17;99787.00;;;11.12;73.46
7962;BME280;4026;43.652;24.906;2022-10-22T06:49:43;99793.41;;;11.04;73.29
7962;BME280;4026;43.652;24.906;2022-10-22T06:52:12;99785.56;;;10.93;73.69
7962;BME280;4026;43.652;24.906;2022-10-22T06:54:38;99780.47;;;10.93;73.52
7962;BME280;4026;43.652;24.906;2022-10-22T06:57:05;99787.53;;;11.02;73.58
7962;BME280;4026;43.652;24.906;2022-10-22T06:59:32;99788.09;;;11.07;73.22
7962;BME280;4026;43.652;24.906;2022-10-22T07:01:59;99781.53;;;11.03;72.92
7962;BME280;4026;43.652;24.906;2022-10-22T07:04:26;99785.09;;;11.01;72.76
7962;BME280;4026;43.652;24.906;2022-10-22T07:06:53;99786.22;;;10.97;73.14
7962;BME280;4026;43.652;24.906;2022-10-22T07:09:22;99778.25;;;11.01;73.38
7962;BME280;4026;43.652;24.906;2022-10-22T07:11:49;99778.44;;;10.98;73.40
7962;BME280;4026;43.652;24.906;2022-10-22T07:14:15;99783.13;;;10.92;73.50
7962;BME280;4026;43.652;24.906;2022-10-22T07:16:42;99770.13;;;10.95;73.63
7962;BME280;4026;43.652;24.906;2022-10-22T07:19:10;99777.22;;;11.04;73.26
7962;BME280;4026;43.652;24.906;2022-10-22T07:21:37;99770.59;;;10.87;73.19
7962;BME280;4026;43.652;24.906;2022-10-22T07:24:05;99770.03;;;10.96;74.03
7962;BME280;4026;43.652;24.906;2022-10-22T07:26:33;99777.28;;;10.90;74.45
7962;BME280;4026;43.652;24.906;2022-10-22T07:29:01;99774.28;;;10.83;74.69
7962;BME280;4026;43.652;24.906;2022-10-22T07:31:29;99769.38;;;10.80;74.54
7962;BME280;4026;43.652;24.906;2022-10-22T07:33:56;99765.78;;;10.82;74.86
7962;BME280;4026;43.652;24.906;2022-10-22T07:36:23;99766.41;;;10.86;73.96
7962;BME280;4026;43.652;24.906;2022-10-22T07:38:54;99762.69;;;11.04;74.65
7962;BME280;4026;43.652;24.906;2022-10-22T07:41:21;99759.13;;;11.07;74.08
7962;BME280;4026;43.652;24.906;2022-10-22T07:43:50;99755.50;;;11.24;74.12
7962;BME280;4026;43.652;24.906;2022-10-22T07:46:16;99752.06;;;11.38;72.90
7962;BME280;4026;43.652;24.906;2022-10-22T07:48:43;99757.09;;;11.65;72.71
7962;BME280;4026;43.652;24.906;2022-10-22T07:51:10;99759.38;;;11.82;71.47
7962;BME280;4026;43.652;24.906;2022-10-22T07:53:38;99754.06;;;11.85;71.03
7962;BME280;4026;43.652;24.906;2022-10-22T07:56:05;99750.38;;;11.89;69.05
7962;BME280;4026;43.652;24.906;2022-10-22T07:58:33;99748.22;;;11.96;70.33
7962;BME280;4026;43.652;24.906;2022-10-22T08:01:02;99751.59;;;12.22;68.83
7962;BME280;4026;43.652;24.906;2022-10-22T08:03:30;99762.34;;;12.64;69.46
7962;BME280;4026;43.652;24.906;2022-10-22T08:05:57;99764.94;;;13.36;64.87
7962;BME280;4026;43.652;24.906;2022-10-22T08:08:24;99759.97;;;13.57;64.72
7962;BME280;4026;43.652;24.906;2022-10-22T08:10:51;99765.88;;;13.70;62.95
7962;BME280;4026;43.652;24.906;2022-10-22T08:13:18;99765.16;;;13.68;62.71
7962;BME280;4026;43.652;24.906;2022-10-22T08:15:45;99763.97;;;13.72;64.40
7962;BME280;4026;43.652;24.906;2022-10-22T08:18:13;99771.47;;;13.75;62.68
7962;BME280;4026;43.652;24.906;2022-10-22T08:20:41;99773.47;;;13.83;62.59
7962;BME280;4026;43.652;24.906;2022-10-22T08:23:08;99764.59;;;14.10;62.25
7962;BME280;4026;43.652;24.906;2022-10-22T08:25:35;99767.50;;;13.82;60.71
7962;BME280;4026;43.652;24.906;2022-10-22T08:28:02;99763.28;;;13.70;60.39
7962;BME280;4026;43.652;24.906;2022-10-22T08:30:29;99756.50;;;13.69;61.24
7962;BME280;4026;43.652;24.906;2022-10-22T08:32:58;99754.69;;;13.94;61.72
7962;BME280;4026;43.652;24.906;2022-10-22T08:35:26;99761.91;;;14.34;60.96
7962;BME280;4026;43.652;24.906;2022-10-22T08:37:53;99748.78;;;14.48;60.75
7962;BME280;4026;43.652;24.906;2022-10-22T08:40:23;99736.63;;;14.50;60.47
7962;BME280;4026;43.652;24.906;2022-10-22T08:46:05;99734.56;;;14.55;59.77
7962;BME280;4026;43.652;24.906;2022-10-22T08:48:42;99736.63;;;15.05;59.68
7962;BME280;4026;43.652;24.906;2022-10-22T08:51:15;99731.94;;;15.31;58.22
7962;BME280;4026;43.652;24.906;2022-10-22T08:53:52;99732.50;;;15.76;57.39
7962;BME280;4026;43.652;24.906;2022-10-22T08:56:27;99726.63;;;15.95;56.19
7962;BME280;4026;43.652;24.906;2022-10-22T08:59:00;99712.97;;;15.74;54.88
7962;BME280;4026;43.652;24.906;2022-10-22T09:01:33;99713.00;;;15.62;57.13
7962;BME280;4026;43.652;24.906;2022-10-22T09:04:06;99717.88;;;15.77;56.14
7962;BME280;4026;43.652;24.906;2022-10-22T09:06:39;99714.78;;;15.62;55.06
7962;BME280;4026;43.652;24.906;2022-10-22T09:09:11;99717.88;;;15.77;56.47
7962;BME280;4026;43.652;24.906;2022-10-22T09:11:43;99715.16;;;15.88;55.24
7962;BME280;4026;43.652;24.906;2022-10-22T09:14:13;99716.34;;;16.05;53.65
7962;BME280;4026;43.652;24.906;2022-10-22T09:16:57;99714.47;;;16.17;54.73
7962;BME280;4026;43.652;24.906;2022-10-22T09:19:32;99716.94;;;16.28;54.31
7962;BME280;4026;43.652;24.906;2022-10-22T09:22:09;99717.81;;;16.38;53.70
7962;BME280;4026;43.652;24.906;2022-10-22T09:24:43;99723.88;;;16.27;53.54
7962;BME280;4026;43.652;24.906;2022-10-22T09:27:12;99725.44;;;16.49;54.14
7962;BME280;4026;43.652;24.906;2022-10-22T09:29:39;99727.84;;;16.41;53.85
7962;BME280;4026;43.652;24.906;2022-10-22T09:32:07;99726.47;;;16.37;53.88
7962;BME280;4026;43.652;24.906;2022-10-22T09:34:33;99731.97;;;16.63;52.90
7962;BME280;4026;43.652;24.906;2022-10-22T09:37:04;99725.19;;;16.72;53.00
7962;BME280;4026;43.652;24.906;2022-10-22T09:39:36;99724.94;;;17.04;52.14
7962;BME280;4026;43.652;24.906;2022-10-22T09:42:04;99728.34;;;17.24;52.95
7962;BME280;4026;43.652;24.906;2022-10-22T09:44:32;99727.34;;;17.45;51.60
7962;BME280;4026;43.652;24.906;2022-10-22T09:46:59;99715.22;;;17.55;50.52
7962;BME280;4026;43.652;24.906;2022-10-22T09:49:29;99706.13;;;17.98;50.96
7962;BME280;4026;43.652;24.906;2022-10-22T09:51:59;99702.44;;;18.46;48.71
7962;BME280;4026;43.652;24.906;2022-10-22T09:54:38;99708.94;;;18.95;48.30
7962;BME280;4026;43.652;24.906;2022-10-22T09:57:13;99717.00;;;18.92;47.51
7962;BME280;4026;43.652;24.906;2022-10-22T09:59:44;99724.41;;;18.87;47.68
7962;BME280;4026;43.652;24.906;2022-10-22T10:02:14;99715.31;;;18.38;47.70
7962;BME280;4026;43.652;24.906;2022-10-22T10:04:48;99707.59;;;18.00;48.48
7962;BME280;4026;43.652;24.906;2022-10-22T10:07:18;99706.78;;;18.00;48.18
7962;BME280;4026;43.652;24.906;2022-10-22T10:09:46;99698.16;;;17.81;50.28
7962;BME280;4026;43.652;24.906;2022-10-22T10:12:24;99691.38;;;18.08;48.33
7962;BME280;4026;43.652;24.906;2022-10-22T10:15:02;99687.91;;;18.17;48.23
7962;BME280;4026;43.652;24.906;2022-10-22T10:17:37;99703.63;;;18.33;48.00
7962;BME280;4026;43.652;24.906;2022-10-22T10:20:21;99712.91;;;18.26;48.73
7962;BME280;4026;43.652;24.906;2022-10-22T10:22:57;99712.81;;;18.46;48.17
7962;BME280;4026;43.652;24.906;2022-10-22T10:25:38;99705.34;;;18.61;48.76
7962;BME280;4026;43.652;24.906;2022-10-22T10:28:21;99694.19;;;18.96;48.70
7962;BME280;4026;43.652;24.906;2022-10-22T10:30:56;99689.91;;;18.87;48.79
7962;BME280;4026;43.652;24.906;2022-10-22T10:33:35;99685.69;;;19.04;47.94
7962;BME280;4026;43.652;24.906;2022-10-22T10:36:12;99666.06;;;19.01;49.64
7962;BME280;4026;43.652;24.906;2022-10-22T10:38:55;99665.19;;;19.18;48.04
7962;BME280;4026;43.652;24.906;2022-10-22T10:41:32;99663.31;;;19.03;48.57
7962;BME280;4026;43.652;24.906;2022-10-22T10:44:15;99653.88;;;18.75;48.12
7962;BME280;4026;43.652;24.906;2022-10-22T10:46:48;99643.41;;;18.67;48.50
7962;BME280;4026;43.652;24.906;2022-10-22T10:49:22;99635.19;;;18.72;49.61
7962;BME280;4026;43.652;24.906;2022-10-22T10:51:55;99629.44;;;18.78;48.80
7962;BME280;4026;43.652;24.906;2022-10-22T10:54:34;99630.38;;;18.95;47.66
7962;BME280;4026;43.652;24.906;2022-10-22T10:57:17;99629.78;;;19.01;47.93
7962;BME280;4026;43.652;24.906;2022-10-22T11:00:00;99625.56;;;18.64;48.30
7962;BME280;4026;43.652;24.906;2022-10-22T11:03:04;99604.50;;;18.59;48.44
7962;BME280;4026;43.652;24.906;2022-10-22T11:05:38;99604.28;;;18.70;49.10
7962;BME280;4026;43.652;24.906;2022-10-22T11:08:11;99606.88;;;18.70;47.97
7962;BME280;4026;43.652;24.906;2022-10-22T11:10:44;99603.75;;;18.67;48.63
7962;BME280;4026;43.652;24.906;2022-10-22T11:13:20;99608.78;;;18.68;48.79
7962;BME280;4026;43.652;24.906;2022-10-22T11:15:51;99595.00;;;18.50;48.57
7962;BME280;4026;43.652;24.906;2022-10-22T11:18:26;99588.44;;;18.55;50.48
7962;BME280;4026;43.652;24.906;2022-10-22T11:21:06;99594.56;;;18.72;49.18
7962;BME280;4026;43.652;24.906;2022-10-22T11:23:40;99592.75;;;18.29;49.34
7962;BME280;4026;43.652;24.906;2022-10-22T11:26:14;99588.69;;;18.44;49.20
7962;BME280;4026;43.652;24.906;2022-10-22T11:28:48;99588.69;;;18.44;49.20
7962;BME280;4026;43.652;24.906;2022-10-22T11:31:18;99586.72;;;18.64;49.28
7962;BME280;4026;43.652;24.906;2022-10-22T11:33:51;99574.28;;;18.86;50.11
7962;BME280;4026;43.652;24.906;2022-10-22T11:36:20;99580.69;;;18.73;49.10
7962;BME280;4026;43.652;24.906;2022-10-22T11:38:48;99578.38;;;18.70;49.21
7962;BME280;4026;43.652;24.906;2022-10-22T11:41:17;99580.22;;;18.60;49.36
7962;BME280;4026;43.652;24.906;2022-10-22T11:43:57;99564.94;;;18.31;49.12
7962;BME280;4026;43.652;24.906;2022-10-22T11:46:33;99560.41;;;17.97;50.02
7962;BME280;4026;43.652;24.906;2022-10-22T11:49:04;99551.25;;;18.03;50.25
7962;BME280;4026;43.652;24.906;2022-10-22T11:51:33;99555.91;;;18.17;50.19
7962;BME280;4026;43.652;24.906;2022-10-22T11:54:02;99551.25;;;18.39;50.63
7962;BME280;4026;43.652;24.906;2022-10-22T11:56:51;99561.66;;;18.65;50.78
7962;BME280;4026;43.652;24.906;2022-10-22T11:59:37;99556.19;;;18.50;48.96
7962;BME280;4026;43.652;24.906;2022-10-22T12:02:23;99551.44;;;18.63;51.02
7962;BME280;4026;43.652;24.906;2022-10-22T12:04:50;99548.84;;;18.63;49.60
7962;BME280;4026;43.652;24.906;2022-10-22T12:07:31;99548.31;;;18.77;50.88
7962;BME280;4026;43.652;24.906;2022-10-22T12:09:58;99557.72;;;18.78;50.43
7962;BME280;4026;43.652;24.906;2022-10-22T12:12:27;99545.00;;;18.93;50.08
7962;BME280;4026;43.652;24.906;2022-10-22T12:15:01;99545.84;;;18.94;50.34
7962;BME280;4026;43.652;24.906;2022-10-22T12:17:28;99538.06;;;18.94;49.48
7962;BME280;4026;43.652;24.906;2022-10-22T12:20:00;99544.75;;;18.78;48.48
7962;BME280;4026;43.652;24.906;2022-10-22T12:22:29;99544.94;;;18.77;48.98
7962;BME280;4026;43.652;24.906;2022-10-22T12:25:00;99540.13;;;18.90;50.03
7962;BME280;4026;43.652;24.906;2022-10-22T12:27:34;99536.78;;;18.98;48.79
7962;BME280;4026;43.652;24.906;2022-10-22T12:30:09;99538.03;;;18.86;49.03
7962;BME280;4026;43.652;24.906;2022-10-22T12:32:42;99526.84;;;19.19;48.46
7962;BME280;4026;43.652;24.906;2022-10-22T12:35:16;99526.66;;;19.55;49.07
7962;BME280;4026;43.652;24.906;2022-10-22T12:37:43;99523.53;;;19.94;47.76
7962;BME280;4026;43.652;24.906;2022-10-22T12:40:18;99514.13;;;20.01;48.21
7962;BME280;4026;43.652;24.906;2022-10-22T12:42:48;99513.13;;;19.94;47.56
7962;BME280;4026;43.652;24.906;2022-10-22T12:45:16;99516.56;;;20.03;45.86
7962;BME280;4026;43.652;24.906;2022-10-22T12:47:46;99517.38;;;20.11;45.54
7962;BME280;4026;43.652;24.906;2022-10-22T12:50:18;99516.56;;;20.44;46.38
7962;BME280;4026;43.652;24.906;2022-10-22T12:52:46;99510.88;;;20.65;43.20
7962;BME280;4026;43.652;24.906;2022-10-22T12:55:17;99504.38;;;20.77;43.00
7962;BME280;4026;43.652;24.906;2022-10-22T12:57:47;99504.66;;;20.74;41.52
7962;BME280;4026;43.652;24.906;2022-10-22T13:00:23;99502.91;;;20.74;42.43
7962;BME280;4026;43.652;24.906;2022-10-22T13:02:51;99500.81;;;20.62;41.32
7962;BME280;4026;43.652;24.906;2022-10-22T13:05:22;99503.69;;;20.83;42.26
7962;BME280;4026;43.652;24.906;2022-10-22T13:07:53;99482.13;;;20.66;42.06
7962;BME280;4026;43.652;24.906;2022-10-22T13:10:24;99477.75;;;20.67;40.68
7962;BME280;4026;43.652;24.906;2022-10-22T13:12:54;99480.00;;;20.78;42.00
7962;BME280;4026;43.652;24.906;2022-10-22T13:15:32;99474.44;;;20.89;43.09
7962;BME280;4026;43.652;24.906;2022-10-22T13:18:05;99478.66;;;20.90;41.50
7962;BME280;4026;43.652;24.906;2022-10-22T13:20:32;99477.72;;;20.83;42.09
7962;BME280;4026;43.652;24.906;2022-10-22T13:23:02;99474.47;;;20.81;42.83
7962;BME280;4026;43.652;24.906;2022-10-22T13:25:30;99468.38;;;20.97;42.99
7962;BME280;4026;43.652;24.906;2022-10-22T13:28:01;99462.34;;;20.57;43.63
7962;BME280;4026;43.652;24.906;2022-10-22T13:30:30;99462.16;;;20.50;44.43
7962;BME280;4026;43.652;24.906;2022-10-22T13:32:58;99461.50;;;20.65;44.06
7962;BME280;4026;43.652;24.906;2022-10-22T13:35:27;99466.69;;;20.65;44.01
7962;BME280;4026;43.652;24.906;2022-10-22T13:37:56;99467.19;;;20.44;43.00